createdAt,value
2018-10-07T00:01:30.198Z,95139.41
2018-10-07T00:03:59.767Z,95138.41
2018-10-07T00:06:28.948Z,95136.30
2018-10-07T00:08:58.141Z,95132.38
2018-10-07T00:11:27.354Z,95132.61
2018-10-07T00:13:56.551Z,95138.00
2018-10-07T00:16:25.693Z,95138.50
2018-10-07T00:18:54.952Z,95133.72
2018-10-07T00:21:24.096Z,95134.27
2018-10-07T00:23:53.251Z,95131.76
2018-10-07T00:26:22.394Z,95124.78
2018-10-07T00:28:51.913Z,95120.12
2018-10-07T00:31:21.617Z,95119.39
2018-10-07T00:33:50.813Z,95110.55
2018-10-07T00:36:19.979Z,95111.89
2018-10-07T00:38:49.169Z,95122.98
2018-10-07T00:41:18.329Z,95121.67
2018-10-07T00:43:47.485Z,95126.83
2018-10-07T00:46:16.949Z,95124.91
2018-10-07T00:48:46.105Z,95125.14
2018-10-07T00:51:15.257Z,95122.79
2018-10-07T00:53:44.405Z,95115.78
2018-10-07T00:56:13.623Z,95118.44
2018-10-07T00:58:42.822Z,95114.85
2018-10-07T01:01:12.022Z,95116.94
2018-10-07T01:03:41.222Z,95117.22
2018-10-07T01:06:10.436Z,95115.09
2018-10-07T01:08:39.778Z,95121.76
2018-10-07T01:11:08.976Z,95115.59
2018-10-07T01:13:38.135Z,95107.47
2018-10-07T01:16:07.798Z,95108.50
2018-10-07T01:18:37.015Z,95109.40
2018-10-07T01:21:06.217Z,95116.13
2018-10-07T01:23:35.447Z,95111.59
2018-10-07T01:26:04.659Z,95110.06
2018-10-07T01:28:33.829Z,95105.98
2018-10-07T01:31:03.004Z,95109.22
2018-10-07T01:33:32.224Z,95107.64
2018-10-07T01:36:01.386Z,95112.14
2018-10-07T01:38:30.593Z,95107.05
2018-10-07T01:40:59.781Z,95106.87
2018-10-07T01:43:29.039Z,95113.69
2018-10-07T01:45:58.223Z,95113.14
2018-10-07T01:48:27.385Z,95120.92
2018-10-07T01:50:56.617Z,95127.45
2018-10-07T01:53:25.971Z,95120.69
2018-10-07T01:55:55.245Z,95124.73
2018-10-07T01:58:24.473Z,95122.84
2018-10-07T02:00:53.605Z,95125.61
2018-10-07T02:03:22.777Z,95123.37
2018-10-07T02:05:51.949Z,95131.27
2018-10-07T02:08:21.332Z,95125.38
2018-10-07T02:10:50.481Z,95126.23
2018-10-07T02:13:19.655Z,95125.19
2018-10-07T02:15:48.814Z,95121.19
2018-10-07T02:18:17.965Z,95125.23
2018-10-07T02:20:47.142Z,95123.08
2018-10-07T02:23:16.324Z,95125.06
2018-10-07T02:25:45.468Z,95125.61
2018-10-07T02:28:14.736Z,95130.25
2018-10-07T02:30:43.974Z,95130.06
2018-10-07T02:33:13.149Z,95130.63
2018-10-07T02:35:42.330Z,95129.48
2018-10-07T02:38:11.544Z,95137.48
2018-10-07T02:40:42.650Z,95133.69
2018-10-07T02:43:12.076Z,95134.23
2018-10-07T02:45:41.249Z,95140.96
2018-10-07T02:48:10.491Z,95141.49
2018-10-07T02:50:40.617Z,95135.27
2018-10-07T02:53:10.181Z,95139.61
2018-10-07T02:55:39.237Z,95143.99
2018-10-07T02:58:08.973Z,95140.45
2018-10-07T03:00:38.180Z,95139.28
2018-10-07T03:03:07.425Z,95140.06
2018-10-07T03:05:36.587Z,95138.44
2018-10-07T03:08:05.919Z,95137.77
2018-10-07T03:10:35.089Z,95143.43
2018-10-07T03:13:04.299Z,95145.01
2018-10-07T03:15:33.466Z,95137.13
2018-10-07T03:18:02.617Z,95135.85
2018-10-07T03:20:32.030Z,95137.97
2018-10-07T03:23:01.189Z,95140.20
2018-10-07T03:25:30.355Z,95147.77
2018-10-07T03:27:59.538Z,95154.00
2018-10-07T03:30:28.739Z,95149.72
2018-10-07T03:32:57.910Z,95158.81
2018-10-07T03:35:27.061Z,95154.50
2018-10-07T03:37:56.242Z,95152.95
2018-10-07T03:40:25.458Z,95151.30
2018-10-07T03:42:54.686Z,95145.69
2018-10-07T03:45:24.001Z,95148.75
2018-10-07T03:47:53.149Z,95146.09
2018-10-07T03:50:22.343Z,95144.81
2018-10-07T03:52:51.506Z,95149.59
2018-10-07T03:55:20.641Z,95150.56
2018-10-07T03:57:49.809Z,95156.28
2018-10-07T04:00:18.985Z,95156.08
2018-10-07T04:02:48.172Z,95157.96
2018-10-07T04:05:17.406Z,95158.77
2018-10-07T04:07:46.608Z,95155.67
2018-10-07T04:10:15.750Z,95163.75
2018-10-07T04:12:44.917Z,95156.98
2018-10-07T04:15:14.111Z,95171.45
2018-10-07T04:17:43.275Z,95173.31
2018-10-07T04:20:12.445Z,95169.88
2018-10-07T04:22:41.720Z,95167.15
2018-10-07T04:25:10.921Z,95167.75
2018-10-07T04:27:40.113Z,95171.36
2018-10-07T04:30:09.645Z,95172.50
2018-10-07T04:32:38.893Z,95179.30
2018-10-07T04:35:08.049Z,95184.61
2018-10-07T04:37:37.273Z,95185.69
2018-10-07T04:40:06.429Z,95188.17
2018-10-07T04:42:35.586Z,95184.67
2018-10-07T04:45:04.849Z,95191.47
2018-10-07T04:47:34.027Z,95195.23
2018-10-07T04:50:03.160Z,95195.23
2018-10-07T04:52:32.421Z,95196.05
2018-10-07T04:55:01.591Z,95190.72
2018-10-07T04:57:30.817Z,95191.83
2018-10-07T04:59:59.992Z,95192.34
2018-10-07T05:02:29.139Z,95190.95
2018-10-07T05:04:58.288Z,95196.05
2018-10-07T05:07:27.490Z,95195.77
2018-10-07T05:11:06.129Z,95196.55
2018-10-07T05:13:49.873Z,95204.18
2018-10-07T05:16:30.006Z,95207.14
2018-10-07T05:18:59.789Z,95209.27
2018-10-07T05:21:29.123Z,95214.58
2018-10-07T05:23:58.890Z,95217.48
2018-10-07T05:26:28.820Z,95216.65
2018-10-07T05:28:58.205Z,95218.53
2018-10-07T05:31:27.357Z,95218.23
2018-10-07T05:33:56.605Z,95214.70
2018-10-07T05:36:26.046Z,95222.78
2018-10-07T05:38:55.352Z,95228.97
2018-10-07T05:41:24.864Z,95232.73
2018-10-07T05:43:54.052Z,95229.87
2018-10-07T05:46:23.379Z,95245.16
2018-10-07T05:48:52.528Z,95236.56
2018-10-07T05:51:21.712Z,95243.78
2018-10-07T05:53:51.030Z,95239.77
2018-10-07T05:56:20.253Z,95246.20
2018-10-07T05:58:50.411Z,95239.26
2018-10-07T06:01:43.406Z,95243.72
2018-10-07T06:04:23.747Z,95249.70
2018-10-07T06:06:54.919Z,95252.36
2018-10-07T06:09:28.154Z,95255.62
2018-10-07T06:11:57.772Z,95256.78
2018-10-07T06:14:44.204Z,95259.72
2018-10-07T06:17:13.404Z,95258.97
2018-10-07T06:19:42.675Z,95263.84
2018-10-07T06:22:11.878Z,95266.00
2018-10-07T06:24:41.041Z,95271.64
2018-10-07T06:27:10.209Z,95267.87
2018-10-07T06:29:39.398Z,95271.64
2018-10-07T06:32:08.568Z,95275.84
2018-10-07T06:34:37.818Z,95281.20
2018-10-07T06:37:07.116Z,95286.55
2018-10-07T06:39:36.273Z,95287.87
2018-10-07T06:42:05.473Z,95291.80
2018-10-07T06:44:34.604Z,95291.20
2018-10-07T06:47:03.805Z,95298.34
2018-10-07T06:49:32.971Z,95301.48
2018-10-07T06:52:02.136Z,95303.97
2018-10-07T06:54:31.296Z,95311.98
2018-10-07T06:57:00.515Z,95318.72
2018-10-07T06:59:29.746Z,95316.84
2018-10-07T07:01:58.897Z,95318.72
2018-10-07T07:04:28.401Z,95318.16
2018-10-07T07:06:57.793Z,95318.70
2018-10-07T07:09:26.997Z,95322.38
2018-10-07T07:11:56.541Z,95324.26
2018-10-07T07:14:25.705Z,95328.57
2018-10-07T07:16:54.949Z,95326.72
2018-10-07T07:19:24.110Z,95323.96
2018-10-07T07:21:53.319Z,95332.45
2018-10-07T07:24:22.517Z,95331.92
2018-10-07T07:26:51.715Z,95344.19
2018-10-07T07:29:20.918Z,95343.80
2018-10-07T07:31:50.110Z,95345.64
2018-10-07T07:34:19.338Z,95354.75
2018-10-07T07:36:48.526Z,95359.63
2018-10-07T07:39:17.768Z,95360.00
2018-10-07T07:41:46.972Z,95365.59
2018-10-07T07:44:16.174Z,95364.24
2018-10-07T07:46:45.357Z,95373.64
2018-10-07T07:49:14.895Z,95370.17
2018-10-07T07:51:43.970Z,95373.44
2018-10-07T07:54:13.188Z,95380.89
2018-10-07T07:56:42.495Z,95388.61
2018-10-07T07:59:11.743Z,95396.03
2018-10-07T08:01:40.969Z,95393.84
2018-10-07T08:04:10.117Z,95402.41
2018-10-07T08:06:39.333Z,95394.59
2018-10-07T08:09:09.888Z,95398.33
2018-10-07T08:11:39.141Z,95397.72
2018-10-07T08:14:08.357Z,95400.93
2018-10-07T08:16:37.509Z,95399.08
2018-10-07T08:19:06.707Z,95399.08
2018-10-07T08:21:35.903Z,95405.11
2018-10-07T08:24:05.173Z,95404.30
2018-10-07T08:26:34.380Z,95406.19
2018-10-07T08:29:03.693Z,95403.45
2018-10-07T08:31:33.004Z,95399.95
2018-10-07T08:34:02.163Z,95408.48
2018-10-07T08:36:31.389Z,95403.48
2018-10-07T08:39:00.569Z,95412.25
2018-10-07T08:41:29.737Z,95412.98
2018-10-07T08:43:58.984Z,95415.58
2018-10-07T08:46:28.191Z,95417.16
2018-10-07T08:48:57.389Z,95412.80
2018-10-07T08:51:26.584Z,95419.39
2018-10-07T08:53:55.743Z,95418.42
2018-10-07T08:56:24.964Z,95414.10
2018-10-07T08:58:54.105Z,95403.69
2018-10-07T09:01:23.283Z,95406.56
2018-10-07T09:03:52.579Z,95407.80
2018-10-07T09:06:21.780Z,95409.12
2018-10-07T09:08:51.040Z,95414.63
2018-10-07T09:11:20.212Z,95417.32
2018-10-07T09:13:49.430Z,95418.10
2018-10-07T09:16:18.627Z,95423.20
2018-10-07T09:18:47.855Z,95419.72
2018-10-07T09:21:17.190Z,95422.06
2018-10-07T09:23:46.727Z,95431.57
2018-10-07T09:26:16.124Z,95429.01
2018-10-07T09:28:45.322Z,95432.16
2018-10-07T09:31:14.512Z,95433.78
2018-10-07T09:33:43.713Z,95428.51
2018-10-07T09:36:12.917Z,95431.69
2018-10-07T09:38:42.097Z,95428.89
2018-10-07T09:41:11.245Z,95441.64
2018-10-07T09:43:40.398Z,95438.98
2018-10-07T09:46:09.554Z,95430.25
2018-10-07T09:48:38.940Z,95429.34
2018-10-07T09:51:08.077Z,95430.20
2018-10-07T09:53:37.255Z,95434.88
2018-10-07T09:56:06.525Z,95431.23
2018-10-07T09:58:35.700Z,95421.69
2018-10-07T10:01:04.863Z,95424.92
2018-10-07T10:03:34.023Z,95423.48
2018-10-07T10:06:03.205Z,95431.88
2018-10-07T10:08:32.344Z,95431.16
2018-10-07T10:11:01.554Z,95429.44
2018-10-07T10:13:30.907Z,95438.00
2018-10-07T10:16:00.264Z,95433.95
2018-10-07T10:18:50.136Z,95441.55
2018-10-07T10:21:36.334Z,95440.38
2018-10-07T10:24:50.742Z,95441.59
2018-10-07T10:27:27.388Z,95440.30
2018-10-07T10:30:13.592Z,95446.56
2018-10-07T10:33:58.291Z,95446.42
2018-10-07T10:36:48.385Z,95455.89
2018-10-07T10:39:33.890Z,95456.80
2018-10-07T10:42:08.326Z,95454.31
2018-10-07T10:44:44.308Z,95455.03
2018-10-07T10:47:26.043Z,95455.03
2018-10-07T10:50:14.864Z,95456.39
2018-10-07T10:53:58.557Z,95458.37
2018-10-07T10:56:36.115Z,95462.38
2018-10-07T10:59:57.929Z,95459.53
2018-10-07T11:03:06.806Z,95461.60
2018-10-07T11:06:01.326Z,95460.64
2018-10-07T11:08:43.240Z,95465.27
2018-10-07T11:11:59.277Z,95467.02
2018-10-07T11:14:37.632Z,95467.79
2018-10-07T11:17:13.754Z,95461.34
2018-10-07T11:19:52.455Z,95460.53
2018-10-07T11:22:48.329Z,95458.47
2018-10-07T11:25:45.131Z,95467.58
2018-10-07T11:28:25.979Z,95461.97
2018-10-07T11:31:13.604Z,95461.70
2018-10-07T11:33:54.341Z,95467.80
2018-10-07T11:36:42.460Z,95471.38
2018-10-07T11:40:24.158Z,95463.01
2018-10-07T11:43:11.759Z,95462.38
2018-10-07T11:46:56.578Z,95459.48
2018-10-07T11:49:36.376Z,95463.92
2018-10-07T11:52:41.095Z,95463.55
2018-10-07T11:55:08.862Z,95463.75
2018-10-07T11:57:38.356Z,95466.37
2018-10-07T12:00:07.735Z,95468.73
2018-10-07T12:02:36.947Z,95467.53
2018-10-07T12:05:06.334Z,95465.90
2018-10-07T12:07:35.547Z,95469.09
2018-10-07T12:10:04.786Z,95462.12
2018-10-07T12:12:35.136Z,95473.12
2018-10-07T12:15:04.527Z,95468.95
2018-10-07T12:17:33.700Z,95471.91
2018-10-07T12:20:02.887Z,95471.05
2018-10-07T12:22:32.239Z,95473.16
2018-10-07T12:25:01.597Z,95473.45
2018-10-07T12:27:31.061Z,95473.65
2018-10-07T12:30:00.422Z,95470.69
2018-10-07T12:32:29.716Z,95468.84
2018-10-07T12:34:59.263Z,95481.52
2018-10-07T12:37:28.672Z,95478.80
2018-10-07T12:39:58.092Z,95477.45
2018-10-07T12:42:27.529Z,95481.52
2018-10-07T12:44:56.933Z,95480.05
2018-10-07T12:47:26.355Z,95483.63
2018-10-07T12:49:55.818Z,95488.48
2018-10-07T12:52:25.192Z,95475.11
2018-10-07T12:54:54.644Z,95488.05
2018-10-07T12:57:24.230Z,95492.71
2018-10-07T12:59:53.642Z,95493.09
2018-10-07T13:02:23.155Z,95494.33
2018-10-07T13:04:52.704Z,95494.88
2018-10-07T13:07:22.321Z,95498.25
2018-10-07T13:09:51.785Z,95499.50
2018-10-07T13:12:21.331Z,95502.70
2018-10-07T13:14:50.844Z,95500.36
2018-10-07T13:17:20.282Z,95505.72
2018-10-07T13:19:49.726Z,95506.63
2018-10-07T13:22:19.135Z,95507.62
2018-10-07T13:24:48.600Z,95503.08
2018-10-07T13:27:18.039Z,95511.97
2018-10-07T13:29:47.658Z,95506.02
2018-10-07T13:32:17.180Z,95516.24
2018-10-07T13:34:46.645Z,95510.19
2018-10-07T13:37:16.120Z,95510.94
2018-10-07T13:39:45.545Z,95517.97
2018-10-07T13:42:14.939Z,95518.20
2018-10-07T13:44:44.443Z,95524.05
2018-10-07T13:47:13.908Z,95522.58
2018-10-07T13:49:43.387Z,95516.61
2018-10-07T13:52:12.817Z,95521.77
2018-10-07T13:54:42.306Z,95519.55
2018-10-07T13:57:11.833Z,95524.19
2018-10-07T13:59:41.325Z,95529.88
2018-10-07T14:02:10.783Z,95531.86
2018-10-07T14:04:40.261Z,95534.80
2018-10-07T14:07:09.826Z,95528.95
2018-10-07T14:09:39.256Z,95533.77
2018-10-07T14:12:08.643Z,95535.25
2018-10-07T14:14:38.098Z,95535.30
2018-10-07T14:17:07.659Z,95530.20
2018-10-07T14:19:37.166Z,95538.38
2018-10-07T14:22:06.718Z,95537.02
2018-10-07T14:24:36.213Z,95534.09
2018-10-07T14:27:05.781Z,95533.87
2018-10-07T14:29:35.126Z,95532.83
2018-10-07T14:32:04.822Z,95534.82
2018-10-07T14:34:34.326Z,95534.87
2018-10-07T14:37:03.829Z,95537.16
2018-10-07T14:39:33.355Z,95537.89
2018-10-07T14:42:02.846Z,95537.44
2018-10-07T14:44:32.329Z,95533.20
2018-10-07T14:47:01.751Z,95533.79
2018-10-07T14:49:31.286Z,95531.21
2018-10-07T14:52:00.791Z,95533.02
2018-10-07T14:54:30.262Z,95535.58
2018-10-07T14:56:59.716Z,95532.56
2018-10-07T14:59:29.209Z,95538.02
2018-10-07T15:01:58.717Z,95536.52
2018-10-07T15:04:28.158Z,95538.99
2018-10-07T15:06:57.704Z,95539.72
2018-10-07T15:09:27.234Z,95537.73
2018-10-07T15:11:56.682Z,95539.74
2018-10-07T15:14:26.134Z,95545.58
2018-10-07T15:16:55.585Z,95547.85
2018-10-07T15:19:25.101Z,95553.84
2018-10-07T15:21:54.453Z,95556.28
2018-10-07T15:24:23.853Z,95562.00
2018-10-07T15:26:53.278Z,95558.21
2018-10-07T15:29:22.758Z,95560.92
2018-10-07T15:31:52.151Z,95565.82
2018-10-07T15:34:21.874Z,95569.03
2018-10-07T15:36:51.318Z,95564.52
2018-10-07T15:39:20.755Z,95554.80
2018-10-07T15:41:50.169Z,95561.36
2018-10-07T15:44:19.681Z,95560.55
2018-10-07T15:46:49.201Z,95569.51
2018-10-07T15:49:18.940Z,95562.25
2018-10-07T15:51:48.398Z,95570.90
2018-10-07T15:54:17.816Z,95565.64
2018-10-07T15:56:47.605Z,95572.78
2018-10-07T15:59:16.709Z,95578.27
2018-10-07T16:01:46.060Z,95580.70
2018-10-07T16:04:15.318Z,95587.45
2018-10-07T16:06:44.775Z,95581.58
2018-10-07T16:09:13.991Z,95592.73
2018-10-07T16:11:43.209Z,95588.04
2018-10-07T16:14:12.435Z,95595.00
2018-10-07T16:16:41.707Z,95598.27
2018-10-07T16:19:10.976Z,95602.56
2018-10-07T16:21:40.256Z,95607.70
2018-10-07T16:24:09.501Z,95609.78
2018-10-07T16:26:38.736Z,95611.41
2018-10-07T16:29:07.914Z,95624.17
2018-10-07T16:31:37.109Z,95624.48
2018-10-07T16:34:06.493Z,95626.13
2018-10-07T16:36:36.058Z,95625.69
2018-10-07T16:39:07.165Z,95640.55
2018-10-07T16:41:36.451Z,95632.81
2018-10-07T16:44:05.665Z,95642.53
2018-10-07T16:46:34.849Z,95646.08
2018-10-07T16:49:04.081Z,95646.92
2018-10-07T16:51:33.316Z,95650.97
2018-10-07T16:54:02.505Z,95645.53
2018-10-07T16:56:31.703Z,95652.66
2018-10-07T16:59:00.962Z,95652.44
2018-10-07T17:01:30.228Z,95650.11
2018-10-07T17:03:59.894Z,95649.09
2018-10-07T17:06:29.055Z,95653.98
2018-10-07T17:08:58.310Z,95650.25
2018-10-07T17:11:27.513Z,95653.79
2018-10-07T17:13:56.855Z,95656.52
2018-10-07T17:16:26.081Z,95661.31
2018-10-07T17:18:55.470Z,95663.80
2018-10-07T17:21:24.629Z,95663.92
2018-10-07T17:23:53.809Z,95664.97
2018-10-07T17:26:23.024Z,95662.90
2018-10-07T17:28:52.205Z,95666.16
2018-10-07T17:31:21.379Z,95668.88
2018-10-07T17:33:50.907Z,95670.77
2018-10-07T17:36:20.211Z,95676.17
2018-10-07T17:38:49.389Z,95674.91
2018-10-07T17:41:18.605Z,95679.27
2018-10-07T17:43:47.968Z,95682.20
2018-10-07T17:46:17.182Z,95682.23
2018-10-07T17:48:46.509Z,95689.84
2018-10-07T17:51:15.637Z,95685.03
2018-10-07T17:53:44.833Z,95696.66
2018-10-07T17:56:14.042Z,95696.19
2018-10-07T17:58:43.241Z,95697.86
2018-10-07T18:01:12.429Z,95697.90
2018-10-07T18:03:41.606Z,95703.03
2018-10-07T18:06:10.854Z,95704.95
2018-10-07T18:08:40.053Z,95708.05
2018-10-07T18:11:09.289Z,95709.91
2018-10-07T18:13:38.512Z,95716.41
2018-10-07T18:16:07.903Z,95718.90
2018-10-07T18:18:37.212Z,95720.77
2018-10-07T18:21:06.445Z,95719.48
2018-10-07T18:23:35.645Z,95720.83
2018-10-07T18:26:04.797Z,95723.00
2018-10-07T18:28:33.969Z,95723.79
2018-10-07T18:31:03.209Z,95722.18
2018-10-07T18:33:32.408Z,95722.52
2018-10-07T18:36:01.605Z,95729.02
2018-10-07T18:38:30.773Z,95733.63
2018-10-07T18:40:59.933Z,95733.18
2018-10-07T18:43:29.105Z,95731.54
2018-10-07T18:45:58.319Z,95737.44
2018-10-07T18:48:28.608Z,95736.42
2018-10-07T18:50:57.885Z,95748.08
2018-10-07T18:53:27.069Z,95738.36
2018-10-07T18:55:56.317Z,95747.83
2018-10-07T18:58:25.473Z,95752.75
2018-10-07T19:00:56.676Z,95759.18
2018-10-07T19:03:25.880Z,95754.92
2018-10-07T19:05:55.044Z,95757.91
2018-10-07T19:08:24.331Z,95763.84
2018-10-07T19:10:53.449Z,95764.15
2018-10-07T19:13:22.621Z,95765.33
2018-10-07T19:15:51.841Z,95770.67
2018-10-07T19:18:21.025Z,95769.63
2018-10-07T19:20:50.293Z,95775.81
2018-10-07T19:23:19.433Z,95773.36
2018-10-07T19:25:48.909Z,95772.55
2018-10-07T19:28:18.101Z,95777.44
2018-10-07T19:30:47.329Z,95774.17
2018-10-07T19:33:16.477Z,95780.91
2018-10-07T19:35:45.682Z,95784.18
2018-10-07T19:38:14.942Z,95783.90
2018-10-07T19:40:44.164Z,95777.22
2018-10-07T19:43:13.374Z,95772.31
2018-10-07T19:45:42.620Z,95770.44
2018-10-07T19:48:11.784Z,95776.65
2018-10-07T19:50:40.975Z,95776.94
2018-10-07T19:53:10.138Z,95776.16
2018-10-07T19:55:39.358Z,95775.08
2018-10-07T19:58:08.661Z,95775.11
2018-10-07T20:00:37.869Z,95772.95
2018-10-07T20:03:07.285Z,95786.64
2018-10-07T20:05:36.480Z,95787.22
2018-10-07T20:08:05.698Z,95788.04
2018-10-07T20:10:34.872Z,95795.59
2018-10-07T20:13:04.076Z,95796.41
2018-10-07T20:15:33.852Z,95800.45
2018-10-07T20:18:03.085Z,95802.08
2018-10-07T20:20:32.252Z,95795.88
2018-10-07T20:23:01.511Z,95799.64
2018-10-07T20:25:30.690Z,95805.80
2018-10-07T20:27:59.914Z,95808.23
2018-10-07T20:30:29.062Z,95810.68
2018-10-07T20:32:58.415Z,95807.67
2018-10-07T20:35:27.595Z,95814.72
2018-10-07T20:37:56.758Z,95813.34
2018-10-07T20:40:26.040Z,95827.64
2018-10-07T20:42:55.237Z,95830.58
2018-10-07T20:45:24.373Z,95831.11
2018-10-07T20:47:53.533Z,95832.73
2018-10-07T20:50:25.332Z,95831.67
2018-10-07T20:52:52.597Z,95832.20
2018-10-07T20:55:21.782Z,95838.68
2018-10-07T20:57:50.938Z,95837.08
2018-10-07T21:00:20.177Z,95832.80
2018-10-07T21:02:49.418Z,95831.97
2018-10-07T21:05:18.594Z,95835.22
2018-10-07T21:07:47.771Z,95831.44
2018-10-07T21:10:16.980Z,95830.93
2018-10-07T21:12:46.264Z,95831.99
2018-10-07T21:15:15.429Z,95830.36
2018-10-07T21:17:44.627Z,95833.61
2018-10-07T21:20:20.047Z,95834.95
2018-10-07T21:22:49.444Z,95835.48
2018-10-07T21:25:18.753Z,95836.84
2018-10-07T21:27:48.062Z,95837.13
2018-10-07T21:30:17.481Z,95837.64
2018-10-07T21:32:46.797Z,95839.52
2018-10-07T21:35:16.094Z,95852.98
2018-10-07T21:37:45.476Z,95855.37
2018-10-07T21:40:14.958Z,95859.41
2018-10-07T21:42:44.432Z,95861.84
2018-10-07T21:45:13.739Z,95859.15
2018-10-07T21:47:43.075Z,95860.73
2018-10-07T21:50:12.470Z,95856.73
2018-10-07T21:52:42.168Z,95856.19
2018-10-07T21:55:11.570Z,95858.59
2018-10-07T21:57:40.933Z,95858.59
2018-10-07T22:00:10.532Z,95858.86
2018-10-07T22:02:39.917Z,95864.22
2018-10-07T22:05:09.272Z,95860.99
2018-10-07T22:07:38.753Z,95864.49
2018-10-07T22:10:08.116Z,95859.40
2018-10-07T22:12:37.429Z,95852.14
2018-10-07T22:15:06.819Z,95854.80
2018-10-07T22:17:36.202Z,95856.16
2018-10-07T22:20:05.690Z,95851.61
2018-10-07T22:22:34.942Z,95847.05
2018-10-07T22:25:04.221Z,95858.33
2018-10-07T22:27:33.746Z,95859.94
2018-10-07T22:30:03.105Z,95859.40
2018-10-07T22:32:32.433Z,95858.30
2018-10-07T22:35:02.004Z,95862.87
2018-10-07T22:37:31.492Z,95863.92
2018-10-07T22:40:00.936Z,95871.44
2018-10-07T22:42:30.552Z,95871.42
2018-10-07T22:45:00.045Z,95872.75
2018-10-07T22:47:29.539Z,95874.61
2018-10-07T22:49:58.989Z,95875.95
2018-10-07T22:52:28.486Z,95871.39
2018-10-07T22:54:58.063Z,95880.00
2018-10-07T22:57:27.567Z,95883.47
2018-10-07T22:59:57.655Z,95879.45
2018-10-07T23:02:27.296Z,95872.98
2018-10-07T23:04:57.056Z,95874.31
2018-10-07T23:07:26.767Z,95873.51
2018-10-07T23:09:56.482Z,95866.80
2018-10-07T23:12:26.765Z,95875.66
2018-10-07T23:14:56.397Z,95871.35
2018-10-07T23:17:26.363Z,95872.42
2018-10-07T23:19:56.021Z,95870.80
2018-10-07T23:22:26.049Z,95866.23
2018-10-07T23:24:55.811Z,95876.19
2018-10-07T23:27:26.065Z,95868.67
2018-10-07T23:29:55.877Z,95880.99
2018-10-07T23:32:25.959Z,95876.97
2018-10-07T23:34:55.787Z,95886.38
2018-10-07T23:37:26.160Z,95886.08
2018-10-07T23:39:56.158Z,95882.83
2018-10-07T23:42:25.898Z,95882.03
2018-10-07T23:44:56.168Z,95885.77
2018-10-07T23:47:26.055Z,95882.50
2018-10-07T23:49:56.098Z,95879.83
2018-10-07T23:52:25.851Z,95879.81
2018-10-07T23:54:56.144Z,95876.86
2018-10-07T23:57:26.262Z,95871.72
2018-10-07T23:59:56.071Z,95875.46
